createdAt,value
2018-04-23T00:01:21.432Z,99.90
2018-04-23T00:03:49.577Z,99.90
2018-04-23T00:06:17.740Z,99.90
2018-04-23T00:08:53.161Z,99.90
2018-04-23T00:11:21.325Z,99.90
2018-04-23T00:13:49.460Z,99.90
2018-04-23T00:16:17.624Z,99.90
2018-04-23T00:18:57.747Z,99.90
2018-04-23T00:21:26.006Z,99.90
2018-04-23T00:23:54.159Z,99.90
2018-04-23T00:26:23.083Z,99.90
2018-04-23T00:28:51.219Z,99.90
2018-04-23T00:31:19.403Z,99.90
2018-04-23T00:33:47.543Z,99.90
2018-04-23T00:36:15.689Z,99.90
2018-04-23T00:38:44.779Z,99.90
2018-04-23T00:41:12.918Z,99.90
2018-04-23T00:43:41.087Z,99.90
2018-04-23T00:46:09.992Z,99.90
2018-04-23T00:48:42.192Z,99.90
2018-04-23T00:51:10.337Z,99.90
2018-04-23T00:53:39.390Z,99.90
2018-04-23T00:56:07.537Z,99.90
2018-04-23T00:58:35.710Z,99.90
2018-04-23T01:01:03.906Z,99.90
2018-04-23T01:03:32.096Z,99.90
2018-04-23T01:06:01.044Z,99.90
2018-04-23T01:08:31.228Z,99.90
2018-04-23T01:10:59.424Z,99.90
2018-04-23T01:13:27.672Z,99.90
2018-04-23T01:15:55.856Z,99.90
2018-04-23T01:18:31.636Z,99.90
2018-04-23T01:20:59.812Z,99.90
2018-04-23T01:23:28.077Z,99.90
2018-04-23T01:25:57.351Z,99.90
2018-04-23T01:28:29.270Z,99.90
2018-04-23T01:30:57.415Z,99.90
2018-04-23T01:33:25.585Z,99.90
2018-04-23T01:35:53.755Z,99.90
2018-04-23T01:38:23.871Z,99.90
2018-04-23T01:40:52.024Z,99.90
2018-04-23T01:43:20.168Z,99.90
2018-04-23T01:45:48.328Z,99.90
2018-04-23T01:48:16.477Z,99.90
2018-04-23T01:50:44.632Z,99.90
2018-04-23T01:53:12.784Z,99.90
2018-04-23T01:55:40.972Z,99.90
2018-04-23T01:58:20.830Z,99.90
2018-04-23T02:00:49.016Z,99.90
2018-04-23T02:03:17.142Z,99.90
2018-04-23T02:05:46.069Z,99.90
2018-04-23T02:08:14.234Z,99.90
2018-04-23T02:10:42.392Z,99.90
2018-04-23T02:13:10.576Z,99.90
2018-04-23T02:15:38.802Z,99.90
2018-04-23T02:18:35.502Z,99.90
2018-04-23T02:21:03.748Z,99.90
2018-04-23T02:23:31.965Z,99.90
2018-04-23T02:26:00.159Z,99.90
2018-04-23T02:28:33.072Z,99.90
2018-04-23T02:31:02.085Z,99.90
2018-04-23T02:33:30.278Z,99.90
2018-04-23T02:35:58.535Z,99.90
2018-04-23T02:38:33.820Z,99.90
2018-04-23T02:41:02.058Z,99.90
2018-04-23T02:43:30.216Z,99.90
2018-04-23T02:45:58.398Z,99.90
2018-04-23T02:48:33.825Z,99.90
2018-04-23T02:51:02.792Z,99.90
2018-04-23T02:53:30.956Z,99.90
2018-04-23T02:55:59.204Z,99.90
2018-04-23T02:58:27.413Z,99.90
2018-04-23T03:00:55.657Z,99.90
2018-04-23T03:03:23.797Z,99.90
2018-04-23T03:05:52.698Z,99.90
2018-04-23T03:08:29.407Z,99.90
2018-04-23T03:10:57.557Z,99.90
2018-04-23T03:13:25.729Z,99.90
2018-04-23T03:15:55.004Z,99.90
2018-04-23T03:18:32.341Z,99.90
2018-04-23T03:21:00.472Z,99.90
2018-04-23T03:23:28.632Z,99.90
2018-04-23T03:25:57.529Z,99.90
2018-04-23T03:28:26.671Z,99.90
2018-04-23T03:30:54.816Z,99.90
2018-04-23T03:33:22.996Z,99.90
2018-04-23T03:35:52.140Z,99.90
2018-04-23T03:38:20.347Z,99.90
2018-04-23T03:40:48.549Z,99.90
2018-04-23T03:43:16.746Z,99.90
2018-04-23T03:45:44.888Z,99.90
2018-04-23T03:48:23.432Z,99.90
2018-04-23T03:50:51.583Z,99.90
2018-04-23T03:53:19.744Z,99.90
2018-04-23T03:55:47.880Z,99.90
2018-04-23T03:58:16.032Z,99.90
2018-04-23T04:00:44.194Z,99.90
2018-04-23T04:03:12.394Z,99.90
2018-04-23T04:05:40.636Z,99.90
2018-04-23T04:08:12.116Z,99.90
2018-04-23T04:10:40.299Z,99.90
2018-04-23T04:13:26.976Z,99.90
2018-04-23T04:16:12.924Z,99.90
2018-04-23T04:18:46.139Z,99.90
2018-04-23T04:21:14.335Z,99.90
2018-04-23T04:23:42.528Z,99.90
2018-04-23T04:26:10.715Z,99.90
2018-04-23T04:28:40.679Z,99.90
2018-04-23T04:31:08.839Z,99.90
2018-04-23T04:33:36.980Z,99.90
2018-04-23T04:36:05.912Z,99.90
2018-04-23T04:38:34.056Z,99.90
2018-04-23T04:41:02.222Z,99.90
2018-04-23T04:43:31.134Z,99.90
2018-04-23T04:45:59.296Z,99.90
2018-04-23T04:48:37.545Z,99.90
2018-04-23T04:51:05.702Z,99.90
2018-04-23T04:53:34.622Z,99.90
2018-04-23T04:56:02.819Z,99.90
2018-04-23T04:58:38.327Z,99.90
2018-04-23T05:01:06.489Z,99.90
2018-04-23T05:03:34.631Z,99.90
2018-04-23T05:06:03.591Z,99.90
2018-04-23T05:08:32.648Z,99.90
2018-04-23T05:11:00.796Z,99.90
2018-04-23T05:13:28.982Z,99.90
2018-04-23T05:15:57.144Z,99.90
2018-04-23T05:18:36.320Z,99.90
2018-04-23T05:21:04.460Z,99.90
2018-04-23T05:23:32.620Z,99.90
2018-04-23T05:26:01.536Z,99.90
2018-04-23T05:28:30.648Z,99.90
2018-04-23T05:30:58.797Z,99.90
2018-04-23T05:33:26.951Z,99.90
2018-04-23T05:35:55.095Z,99.90
2018-04-23T05:38:33.552Z,99.90
2018-04-23T05:41:01.706Z,99.90
2018-04-23T05:43:30.632Z,99.90
2018-04-23T05:45:58.785Z,99.90
2018-04-23T05:48:26.960Z,99.90
2018-04-23T05:50:55.116Z,99.90
2018-04-23T05:53:23.289Z,99.90
2018-04-23T05:55:52.201Z,99.90
2018-04-23T05:58:21.327Z,99.90
2018-04-23T06:00:49.459Z,99.90
2018-04-23T06:03:17.631Z,99.90
2018-04-23T06:05:45.776Z,99.90
2018-04-23T06:08:13.931Z,99.90
2018-04-23T06:10:42.070Z,99.90
2018-04-23T06:13:10.258Z,99.90
2018-04-23T06:15:38.417Z,99.90
2018-04-23T06:18:21.021Z,99.90
2018-04-23T06:20:49.162Z,99.90
2018-04-23T06:23:18.094Z,99.90
2018-04-23T06:25:46.234Z,99.90
2018-04-23T06:28:20.101Z,99.90
2018-04-23T06:30:48.249Z,99.90
2018-04-23T06:33:16.392Z,99.90
2018-04-23T06:35:44.557Z,99.90
2018-04-23T06:38:13.464Z,99.90
2018-04-23T06:40:41.628Z,99.90
2018-04-23T06:43:10.531Z,99.90
2018-04-23T06:45:38.696Z,99.90
2018-04-23T06:48:06.836Z,99.90
2018-04-23T06:50:35.001Z,99.90
2018-04-23T06:53:03.147Z,99.90
2018-04-23T06:55:31.309Z,99.90
2018-04-23T06:58:00.412Z,99.80
2018-04-23T07:00:28.576Z,99.90
2018-04-23T07:02:56.715Z,99.90
2018-04-23T07:05:25.725Z,99.90
2018-04-23T07:08:01.020Z,99.90
2018-04-23T07:10:29.210Z,99.90
2018-04-23T07:12:57.342Z,99.90
2018-04-23T07:15:25.556Z,99.90
2018-04-23T07:18:00.996Z,99.90
2018-04-23T07:20:29.136Z,98.50
2018-04-23T07:22:57.313Z,98.00
2018-04-23T07:25:26.153Z,97.80
2018-04-23T07:27:54.329Z,97.30
2018-04-23T07:30:23.257Z,97.30
2018-04-23T07:32:51.418Z,97.30
2018-04-23T07:35:20.333Z,95.90
2018-04-23T07:37:49.428Z,95.80
2018-04-23T07:40:17.570Z,95.10
2018-04-23T07:42:45.724Z,94.60
2018-04-23T07:45:14.627Z,92.80
2018-04-23T07:47:42.792Z,92.80
2018-04-23T07:50:11.697Z,88.40
2018-04-23T07:52:39.888Z,89.20
2018-04-23T07:55:08.984Z,86.50
2018-04-23T07:57:40.760Z,87.80
2018-04-23T08:00:08.904Z,87.00
2018-04-23T08:02:37.143Z,84.80
2018-04-23T08:05:06.044Z,84.00
2018-04-23T08:07:45.017Z,81.30
2018-04-23T08:10:13.215Z,81.20
2018-04-23T08:12:41.472Z,82.10
2018-04-23T08:15:09.665Z,80.40
2018-04-23T08:17:54.644Z,78.20
2018-04-23T08:20:24.007Z,74.90
2018-04-23T08:22:52.262Z,75.60
2018-04-23T08:25:20.477Z,76.50
2018-04-23T08:27:50.929Z,77.10
2018-04-23T08:30:19.870Z,77.70
2018-04-23T08:32:48.069Z,77.60
2018-04-23T08:35:16.280Z,78.80
2018-04-23T08:37:52.829Z,78.10
2018-04-23T08:40:21.770Z,85.70
2018-04-23T08:42:49.912Z,84.80
2018-04-23T08:45:18.925Z,96.50
2018-04-23T08:47:54.809Z,96.40
2018-04-23T08:50:23.234Z,99.90
2018-04-23T08:52:52.159Z,99.90
2018-04-23T08:55:20.355Z,99.90
2018-04-23T08:57:49.473Z,99.90
2018-04-23T09:00:17.633Z,99.90
2018-04-23T09:02:45.783Z,99.90
2018-04-23T09:05:13.948Z,99.90
2018-04-23T09:07:42.106Z,99.90
2018-04-23T09:10:10.256Z,99.90
2018-04-23T09:12:38.422Z,99.90
2018-04-23T09:15:06.560Z,99.90
2018-04-23T09:17:34.723Z,99.90
2018-04-23T09:20:02.880Z,99.90
2018-04-23T09:22:31.056Z,99.90
2018-04-23T09:24:59.282Z,99.90
2018-04-23T09:27:31.333Z,99.90
2018-04-23T09:29:59.485Z,99.90
2018-04-23T09:32:27.655Z,99.90
2018-04-23T09:34:56.570Z,99.90
2018-04-23T09:37:24.746Z,99.90
2018-04-23T09:39:53.927Z,99.90
2018-04-23T09:42:22.201Z,99.90
2018-04-23T09:44:50.390Z,99.90
2018-04-23T09:47:18.663Z,99.90
2018-04-23T09:49:47.065Z,99.90
2018-04-23T09:52:15.268Z,99.90
2018-04-23T09:54:43.444Z,99.90
2018-04-23T09:57:13.691Z,99.90
2018-04-23T09:59:41.889Z,99.90
2018-04-23T10:02:10.100Z,99.90
2018-04-23T10:04:39.114Z,99.90
2018-04-23T10:07:08.302Z,99.90
2018-04-23T10:09:36.520Z,99.90
2018-04-23T10:12:04.761Z,99.90
2018-04-23T10:14:32.916Z,99.90
2018-04-23T10:17:10.108Z,99.90
2018-04-23T10:19:38.349Z,99.90
2018-04-23T10:22:06.536Z,99.90
2018-04-23T10:24:35.605Z,99.90
2018-04-23T10:27:12.801Z,99.90
2018-04-23T10:29:41.047Z,99.90
2018-04-23T10:32:09.326Z,99.90
2018-04-23T10:34:38.367Z,99.90
2018-04-23T10:37:08.375Z,99.90
2018-04-23T10:39:36.516Z,99.90
2018-04-23T10:42:04.660Z,99.90
2018-04-23T10:44:32.853Z,99.90
2018-04-23T10:47:10.121Z,99.90
2018-04-23T10:49:38.325Z,99.90
2018-04-23T10:52:08.521Z,99.90
2018-04-23T10:54:36.722Z,99.90
2018-04-23T10:57:13.243Z,99.90
2018-04-23T10:59:41.445Z,99.90
2018-04-23T11:02:09.597Z,99.90
2018-04-23T11:04:37.829Z,99.90
2018-04-23T11:07:06.088Z,99.90
2018-04-23T11:09:34.310Z,99.90
2018-04-23T11:12:03.241Z,99.90
2018-04-23T11:14:31.507Z,99.90
2018-04-23T11:17:12.133Z,99.90
2018-04-23T11:19:42.112Z,99.90
2018-04-23T11:22:10.363Z,99.90
2018-04-23T11:24:38.565Z,99.90
2018-04-23T11:27:06.907Z,99.90
2018-04-23T11:29:35.120Z,99.90
2018-04-23T11:32:03.401Z,99.90
2018-04-23T11:34:31.593Z,99.90
2018-04-23T11:37:13.798Z,99.90
2018-04-23T11:39:42.775Z,99.90
2018-04-23T11:42:11.045Z,99.90
2018-04-23T11:44:39.255Z,99.90
2018-04-23T11:47:13.005Z,99.90
2018-04-23T11:49:41.199Z,99.90
2018-04-23T11:52:09.482Z,99.90
2018-04-23T11:54:37.696Z,99.90
2018-04-23T11:57:23.825Z,99.90
2018-04-23T11:59:51.988Z,99.90
2018-04-23T12:02:20.153Z,99.90
2018-04-23T12:04:48.288Z,99.90
2018-04-23T12:07:40.730Z,99.90
2018-04-23T12:10:09.653Z,99.90
2018-04-23T12:12:37.824Z,99.90
2018-04-23T12:15:05.972Z,99.90
2018-04-23T12:17:34.136Z,99.90
2018-04-23T12:20:03.061Z,98.60
2018-04-23T12:22:31.233Z,98.90
2018-04-23T12:24:59.380Z,97.20
2018-04-23T12:27:32.855Z,96.70
2018-04-23T12:30:00.998Z,96.60
2018-04-23T12:32:29.136Z,96.30
2018-04-23T12:34:58.097Z,95.10
2018-04-23T12:37:27.292Z,95.10
2018-04-23T12:39:55.541Z,96.10
2018-04-23T12:42:23.789Z,97.00
2018-04-23T12:44:51.980Z,97.00
2018-04-23T12:47:29.759Z,96.90
2018-04-23T12:49:58.971Z,96.60
2018-04-23T12:52:27.128Z,94.40
2018-04-23T12:54:55.313Z,93.80
2018-04-23T12:57:38.448Z,93.70
2018-04-23T13:00:06.605Z,93.40
2018-04-23T13:02:34.840Z,92.60
2018-04-23T13:05:03.045Z,92.40
2018-04-23T13:07:39.813Z,92.20
2018-04-23T13:10:08.845Z,90.80
2018-04-23T13:12:37.005Z,90.80
2018-04-23T13:15:05.212Z,91.00
2018-04-23T13:17:47.496Z,91.20
2018-04-23T13:20:15.748Z,91.50
2018-04-23T13:22:43.941Z,91.90
2018-04-23T13:25:12.199Z,92.00
2018-04-23T13:27:40.432Z,92.60
2018-04-23T13:30:08.629Z,93.10
2018-04-23T13:32:36.840Z,92.90
2018-04-23T13:35:05.025Z,94.20
2018-04-23T13:37:50.503Z,93.80
2018-04-23T13:40:18.790Z,93.60
2018-04-23T13:42:46.998Z,93.00
2018-04-23T13:45:15.976Z,94.30
2018-04-23T13:47:44.182Z,94.30
2018-04-23T13:50:12.386Z,93.00
2018-04-23T13:52:40.611Z,93.20
2018-04-23T13:55:08.784Z,94.10
2018-04-23T13:57:50.106Z,92.90
2018-04-23T14:00:18.305Z,92.80
2018-04-23T14:02:46.476Z,92.90
2018-04-23T14:05:14.645Z,92.80
2018-04-23T14:07:56.952Z,94.10
2018-04-23T14:10:25.095Z,93.70
2018-04-23T14:12:53.302Z,93.50
2018-04-23T14:15:21.438Z,93.00
2018-04-23T14:17:49.600Z,93.80
2018-04-23T14:20:19.833Z,94.60
2018-04-23T14:22:47.981Z,95.40
2018-04-23T14:25:16.957Z,94.70
2018-04-23T14:27:46.028Z,94.70
2018-04-23T14:30:14.200Z,94.90
2018-04-23T14:32:42.397Z,95.10
2018-04-23T14:35:10.640Z,95.10
2018-04-23T14:37:42.876Z,94.20
2018-04-23T14:40:11.117Z,94.20
2018-04-23T14:42:39.328Z,92.70
2018-04-23T14:45:07.570Z,93.10
2018-04-23T14:47:39.861Z,91.50
2018-04-23T14:50:08.108Z,90.20
2018-04-23T14:52:36.307Z,87.40
2018-04-23T14:55:05.273Z,87.00
2018-04-23T14:57:33.497Z,86.90
2018-04-23T15:00:01.753Z,86.90
2018-04-23T15:02:30.697Z,84.30
2018-04-23T15:04:58.912Z,84.30
2018-04-23T15:07:38.548Z,86.40
2018-04-23T15:10:06.790Z,86.30
2018-04-23T15:12:35.028Z,85.30
2018-04-23T15:15:03.325Z,85.40
2018-04-23T15:17:41.333Z,87.20
2018-04-23T15:20:09.585Z,88.70
2018-04-23T15:22:37.875Z,90.10
2018-04-23T15:25:06.142Z,90.90
2018-04-23T15:27:35.327Z,91.10
2018-04-23T15:30:03.520Z,92.20
2018-04-23T15:32:31.727Z,92.00
2018-04-23T15:34:59.885Z,91.20
2018-04-23T15:38:02.811Z,91.50
2018-04-23T15:40:31.766Z,91.30
2018-04-23T15:42:59.986Z,91.30
2018-04-23T15:45:28.937Z,91.10
2018-04-23T15:47:59.105Z,91.10
2018-04-23T15:50:27.277Z,90.20
2018-04-23T15:52:56.225Z,92.20
2018-04-23T15:55:24.412Z,92.20
2018-04-23T15:57:53.664Z,93.20
2018-04-23T16:00:21.848Z,94.30
2018-04-23T16:02:50.029Z,94.70
2018-04-23T16:05:18.189Z,90.80
2018-04-23T16:07:46.474Z,87.20
2018-04-23T16:10:14.674Z,85.70
2018-04-23T16:12:42.888Z,85.90
2018-04-23T16:15:11.888Z,93.80
2018-04-23T16:17:40.134Z,93.70
2018-04-23T16:20:08.306Z,95.40
2018-04-23T16:22:36.534Z,97.00
2018-04-23T16:25:04.902Z,98.30
2018-04-23T16:27:57.345Z,99.90
2018-04-23T16:30:25.506Z,99.90
2018-04-23T16:32:53.707Z,99.90
2018-04-23T16:35:21.957Z,99.90
2018-04-23T16:37:50.121Z,99.90
2018-04-23T16:40:19.130Z,99.90
2018-04-23T16:42:47.344Z,99.90
2018-04-23T16:45:15.496Z,99.90
2018-04-23T16:47:47.281Z,99.90
2018-04-23T16:50:15.433Z,99.90
2018-04-23T16:52:43.629Z,99.90
2018-04-23T16:55:11.772Z,99.90
2018-04-23T16:57:43.164Z,99.90
2018-04-23T17:00:11.316Z,99.90
2018-04-23T17:02:39.448Z,99.90
2018-04-23T17:05:07.596Z,99.90
2018-04-23T17:07:40.044Z,99.90
2018-04-23T17:10:08.218Z,99.90
2018-04-23T17:12:36.447Z,99.90
2018-04-23T17:15:04.665Z,99.90
2018-04-23T17:17:33.755Z,99.90
2018-04-23T17:20:01.978Z,99.90
2018-04-23T17:22:30.159Z,99.90
2018-04-23T17:24:58.370Z,99.90
2018-04-23T17:27:33.630Z,99.90
2018-04-23T17:30:01.858Z,99.90
2018-04-23T17:32:30.023Z,99.90
2018-04-23T17:34:58.281Z,99.90
2018-04-23T17:37:36.521Z,99.90
2018-04-23T17:40:04.783Z,99.90
2018-04-23T17:42:32.993Z,99.90
2018-04-23T17:45:01.202Z,99.90
2018-04-23T17:47:40.271Z,99.90
2018-04-23T17:50:08.518Z,99.90
2018-04-23T17:52:37.539Z,99.90
2018-04-23T17:55:05.798Z,99.90
2018-04-23T17:57:48.790Z,99.90
2018-04-23T18:00:17.010Z,99.90
2018-04-23T18:02:45.305Z,99.90
2018-04-23T18:05:13.614Z,99.90
2018-04-23T18:07:41.859Z,99.90
2018-04-23T18:10:10.120Z,99.90
2018-04-23T18:12:38.310Z,99.90
2018-04-23T18:15:06.483Z,99.90
2018-04-23T18:17:34.735Z,99.90
2018-04-23T18:20:02.981Z,99.90
2018-04-23T18:22:31.983Z,99.90
2018-04-23T18:25:00.968Z,99.90
2018-04-23T18:27:29.217Z,99.90
2018-04-23T18:29:57.478Z,99.90
2018-04-23T18:32:25.741Z,99.90
2018-04-23T18:34:53.965Z,99.90
2018-04-23T18:37:30.157Z,99.90
2018-04-23T18:39:58.372Z,99.90
2018-04-23T18:42:26.565Z,99.90
2018-04-23T18:44:54.866Z,99.90
2018-04-23T18:47:23.066Z,99.90
2018-04-23T18:49:51.355Z,99.90
2018-04-23T18:52:20.341Z,99.90
2018-04-23T18:54:48.603Z,99.90
2018-04-23T18:57:25.504Z,99.90
2018-04-23T18:59:53.697Z,99.90
2018-04-23T19:02:21.914Z,99.90
2018-04-23T19:04:50.901Z,99.90
2018-04-23T19:07:28.541Z,99.90
2018-04-23T19:09:56.810Z,99.90
2018-04-23T19:12:24.977Z,99.90
2018-04-23T19:14:53.123Z,99.90
2018-04-23T19:17:22.271Z,99.90
2018-04-23T19:19:50.422Z,99.90
2018-04-23T19:22:18.632Z,99.90
2018-04-23T19:24:46.836Z,99.90
2018-04-23T19:27:15.065Z,99.90
2018-04-23T19:29:43.332Z,99.90
2018-04-23T19:32:11.583Z,99.90
2018-04-23T19:34:39.760Z,99.90
2018-04-23T19:37:17.290Z,99.90
2018-04-23T19:39:45.512Z,99.90
2018-04-23T19:42:13.717Z,99.90
2018-04-23T19:44:41.936Z,99.90
2018-04-23T19:47:18.316Z,99.90
2018-04-23T19:49:47.353Z,99.90
2018-04-23T19:52:15.569Z,99.90
2018-04-23T19:54:43.840Z,99.90
2018-04-23T19:57:19.189Z,99.90
2018-04-23T19:59:48.113Z,99.90
2018-04-23T20:02:16.286Z,99.90
2018-04-23T20:04:44.582Z,99.90
2018-04-23T20:07:16.989Z,99.90
2018-04-23T20:09:45.145Z,99.90
2018-04-23T20:12:13.316Z,99.90
2018-04-23T20:14:41.529Z,99.90
2018-04-23T20:17:17.835Z,99.90
2018-04-23T20:19:46.435Z,99.90
2018-04-23T20:22:14.665Z,99.90
2018-04-23T20:24:42.859Z,99.90
2018-04-23T20:27:12.024Z,99.90
2018-04-23T20:29:41.065Z,99.90
2018-04-23T20:32:09.269Z,99.90
2018-04-23T20:34:37.488Z,99.90
2018-04-23T20:37:06.641Z,99.90
2018-04-23T20:39:34.868Z,99.90
2018-04-23T20:42:03.109Z,99.90
2018-04-23T20:44:32.132Z,99.90
2018-04-23T20:47:01.302Z,99.90
2018-04-23T20:49:30.317Z,99.90
2018-04-23T20:51:58.579Z,99.90
2018-04-23T20:54:26.808Z,99.90
2018-04-23T20:57:03.113Z,99.90
2018-04-23T20:59:31.370Z,99.90
2018-04-23T21:01:59.573Z,99.90
2018-04-23T21:04:27.835Z,99.90
2018-04-23T21:07:01.828Z,99.90
2018-04-23T21:09:30.113Z,99.90
2018-04-23T21:11:59.090Z,99.90
2018-04-23T21:14:27.344Z,99.90
2018-04-23T21:16:57.492Z,99.90
2018-04-23T21:19:26.651Z,99.90
2018-04-23T21:21:54.909Z,99.90
2018-04-23T21:24:23.121Z,99.90
2018-04-23T21:26:51.354Z,99.90
2018-04-23T21:29:19.578Z,99.90
2018-04-23T21:31:47.867Z,99.90
2018-04-23T21:34:16.128Z,99.90
2018-04-23T21:37:36.016Z,99.90
2018-04-23T21:40:04.224Z,99.90
2018-04-23T21:42:33.197Z,99.90
2018-04-23T21:45:01.461Z,99.90
2018-04-23T21:47:31.589Z,99.90
2018-04-23T21:49:59.837Z,99.90
2018-04-23T21:52:28.063Z,99.90
2018-04-23T21:54:57.032Z,99.90
2018-04-23T21:57:53.733Z,99.90
2018-04-23T22:00:21.955Z,99.90
2018-04-23T22:02:50.972Z,99.90
2018-04-23T22:05:19.274Z,99.90
2018-04-23T22:07:47.477Z,99.90
2018-04-23T22:10:15.671Z,99.90
2018-04-23T22:12:44.688Z,99.90
2018-04-23T22:15:12.945Z,99.90
2018-04-23T22:17:58.036Z,99.90
2018-04-23T22:20:26.216Z,99.90
2018-04-23T22:22:54.458Z,99.90
2018-04-23T22:25:22.665Z,99.90
2018-04-23T22:27:51.860Z,99.90
2018-04-23T22:30:20.013Z,99.90
2018-04-23T22:32:49.071Z,99.90
2018-04-23T22:35:17.307Z,99.90
2018-04-23T22:37:45.524Z,99.90
2018-04-23T22:40:13.777Z,99.90
2018-04-23T22:42:42.025Z,99.90
2018-04-23T22:45:10.245Z,99.90
2018-04-23T22:47:44.105Z,99.90
2018-04-23T22:50:12.288Z,99.90
2018-04-23T22:52:40.464Z,99.90
2018-04-23T22:55:08.644Z,99.90
2018-04-23T22:57:36.831Z,99.90
2018-04-23T23:00:05.002Z,99.90
2018-04-23T23:02:33.177Z,99.90
2018-04-23T23:05:01.404Z,99.90
2018-04-23T23:07:30.445Z,99.90
2018-04-23T23:09:58.668Z,99.90
2018-04-23T23:12:27.665Z,99.90
2018-04-23T23:14:55.940Z,99.90
2018-04-23T23:17:32.089Z,99.90
2018-04-23T23:20:00.352Z,99.90
2018-04-23T23:22:28.563Z,99.90
2018-04-23T23:24:56.850Z,99.90
2018-04-23T23:27:27.166Z,99.90
2018-04-23T23:29:56.197Z,99.90
2018-04-23T23:32:24.438Z,99.90
2018-04-23T23:34:52.692Z,99.90
2018-04-23T23:37:23.617Z,99.90
2018-04-23T23:39:51.872Z,99.90
2018-04-23T23:42:20.075Z,99.90
2018-04-23T23:44:48.328Z,99.90
2018-04-23T23:47:21.308Z,99.90
2018-04-23T23:49:49.514Z,99.90
2018-04-23T23:52:18.521Z,99.90
2018-04-23T23:54:47.509Z,99.90
2018-04-23T23:57:15.728Z,99.90
2018-04-23T23:59:43.970Z,99.90
